Time;durP1;ratioP1;P1;durP2;ratioP2;P2;SDS_P1;SDS_P2;PMS_P1;PMS_P2;Temp;Humidity;BMP_temperature;BMP_pressure;BME280_temperature;BME280_humidity;BME280_pressure;Samples;Min_cycle;Max_cycle;Signal;HPM_P1;HPM_P2
2022/03/07 00:00:07;;;;;;;45.40;41.60;;;;;;;-2.56;63.83;98336.46;105924;1277;22706;-80
2022/03/07 00:03:00;;;;;;;42.60;38.80;;;;;;;-2.58;63.71;98335.98;105904;1277;22654;-79
2022/03/07 00:05:29;;;;;;;45.00;41.00;;;;;;;-2.61;63.67;98335.61;105706;1278;24263;-83
2022/03/07 00:07:58;;;;;;;45.20;41.50;;;;;;;-2.63;63.55;98336.14;105965;1278;22613;-82
2022/03/07 00:10:47;;;;;;;43.60;40.00;;;;;;;-2.66;63.53;98335.58;105938;1277;24359;-84
2022/03/07 00:13:15;;;;;;;47.20;42.90;;;;;;;-2.69;63.46;98336.55;105462;1280;22689;-83
2022/03/07 00:15:43;;;;;;;47.40;43.30;;;;;;;-2.71;63.44;98334.97;105590;1280;24297;-82
2022/03/07 00:18:15;;;;;;;48.20;43.90;;;;;;;-2.73;63.54;98337.53;105867;1277;22848;-81
2022/03/07 00:20:42;;;;;;;46.60;42.60;;;;;;;-2.75;63.55;98336.14;105913;1278;22694;-82
2022/03/07 00:23:16;;;;;;;49.40;45.30;;;;;;;-2.77;63.51;98336.98;105972;1277;24143;-81
2022/03/07 00:25:48;;;;;;;48.00;43.90;;;;;;;-2.78;63.48;98332.48;105939;1277;24404;-81
2022/03/07 00:28:17;;;;;;;50.90;46.50;;;;;;;-2.79;63.44;98338.45;105989;1278;24820;-82
2022/03/07 00:30:45;;;;;;;48.60;44.60;;;;;;;-2.81;63.46;98339.39;105745;1280;22669;-84
2022/03/07 00:33:16;;;;;;;48.70;44.70;;;;;;;-2.83;63.66;98339.75;105903;1278;24534;-80
2022/03/07 00:35:45;;;;;;;49.40;45.10;;;;;;;-2.85;63.66;98340.68;106017;1277;22544;-82
2022/03/07 00:38:14;;;;;;;47.00;43.00;;;;;;;-2.86;63.55;98341.77;105939;1278;23953;-82
2022/03/07 00:40:45;;;;;;;52.20;47.80;;;;;;;-2.89;63.52;98343.72;105879;1278;22665;-82
2022/03/07 00:43:13;;;;;;;48.90;44.70;;;;;;;-2.91;63.51;98341.52;105878;1278;25646;-80
2022/03/07 00:45:41;;;;;;;50.00;45.70;;;;;;;-2.92;63.56;98334.08;105925;1280;24239;-81
2022/03/07 00:48:10;;;;;;;48.40;44.20;;;;;;;-2.93;63.49;98334.95;108050;1277;23737;-82
2022/03/07 00:50:45;;;;;;;50.20;46.00;;;;;;;-2.93;63.54;98332.23;105964;1278;22714;-82
2022/03/07 00:53:18;;;;;;;45.40;41.60;;;;;;;-2.95;63.53;98330.48;105848;1280;22601;-80
2022/03/07 00:55:47;;;;;;;44.60;40.90;;;;;;;-2.94;63.38;98332.27;106055;1279;22539;-80
2022/03/07 00:58:18;;;;;;;46.90;42.90;;;;;;;-2.93;63.36;98330.66;108277;1279;22649;-80
2022/03/07 01:00:46;;;;;;;44.00;40.20;;;;;;;-2.94;64.75;98329.88;108384;1279;22917;-80
2022/03/07 01:03:17;;;;;;;42.10;38.40;;;;;;;-2.94;65.12;98324.69;108321;1280;23849;-80
2022/03/07 01:05:46;;;;;;;44.00;40.30;;;;;;;-2.93;64.27;98328.30;107928;1281;22553;-80
2022/03/07 01:08:16;;;;;;;40.70;37.30;;;;;;;-2.93;63.77;98325.30;108420;1279;22553;-79
2022/03/07 01:10:45;;;;;;;43.20;39.60;;;;;;;-2.95;63.32;98324.80;107510;1279;22488;-80
2022/03/07 01:13:18;;;;;;;42.20;38.70;;;;;;;-2.99;63.01;98325.56;106778;1281;22553;-82
2022/03/07 01:15:46;;;;;;;43.20;39.60;;;;;;;-3.02;62.91;98324.76;106475;1281;24067;-81
2022/03/07 01:18:14;;;;;;;43.80;40.10;;;;;;;-3.03;62.90;98320.12;106703;1279;25417;-79
2022/03/07 01:20:43;;;;;;;43.40;39.70;;;;;;;-3.04;63.01;98322.36;106167;1279;25438;-79
2022/03/07 01:23:11;;;;;;;46.30;42.40;;;;;;;-3.06;62.93;98315.35;106060;1279;22653;-79
2022/03/07 01:25:39;;;;;;;45.20;41.20;;;;;;;-3.07;62.95;98319.71;105532;1279;389851;-80
2022/03/07 01:28:08;;;;;;;46.00;41.90;;;;;;;-3.08;63.02;98320.04;105816;1281;22559;-80
2022/03/07 01:30:35;;;;;;;49.60;45.40;;;;;;;-3.12;63.09;98320.67;105988;1279;23100;-80
2022/03/07 01:33:03;;;;;;;56.00;51.20;;;;;;;-3.15;63.14;98316.45;105695;1279;23939;-79
2022/03/07 01:35:31;;;;;;;57.00;51.90;;;;;;;-3.18;63.45;98318.85;105610;1280;22755;-80
2022/03/07 01:37:59;;;;;;;53.80;49.00;;;;;;;-3.19;63.55;98319.45;105867;1279;24561;-79
2022/03/07 01:40:27;;;;;;;48.30;43.90;;;;;;;-3.22;63.74;98317.22;105844;1279;23942;-79
2022/03/07 01:42:56;;;;;;;47.90;43.60;;;;;;;-3.21;64.02;98313.25;105596;1279;26652;-80
2022/03/07 01:45:26;;;;;;;49.80;45.40;;;;;;;-3.19;64.39;98317.76;105669;1280;22865;-79
2022/03/07 01:47:54;;;;;;;48.10;44.00;;;;;;;-3.17;64.20;98313.70;105428;1281;25500;-80
2022/03/07 01:50:21;;;;;;;49.30;45.10;;;;;;;-3.20;64.36;98316.61;105567;1282;25446;-79
2022/03/07 01:52:53;;;;;;;48.70;44.70;;;;;;;-3.23;64.25;98313.55;105683;1281;25174;-79
2022/03/07 01:55:23;;;;;;;49.30;45.20;;;;;;;-3.28;64.50;98316.07;105590;1280;25017;-79
2022/03/07 01:57:53;;;;;;;55.00;50.20;;;;;;;-3.33;64.34;98314.15;105652;1280;25434;-79
2022/03/07 02:00:24;;;;;;;50.50;46.20;;;;;;;-3.37;64.49;98311.86;105964;1280;22559;-79
2022/03/07 02:02:53;;;;;;;53.10;48.80;;;;;;;-3.40;64.88;98307.66;105853;1280;22709;-79
2022/03/07 02:05:29;;;;;;;50.40;45.80;;;;;;;-3.43;64.90;98304.52;105808;1280;25502;-79
2022/03/07 02:08:01;;;;;;;43.10;39.30;;;;;;;-3.43;65.27;98300.55;105981;1280;22675;-79
2022/03/07 02:10:33;;;;;;;47.30;43.00;;;;;;;-3.39;65.31;98300.17;105641;1280;22558;-80
2022/03/07 02:13:15;;;;;;;50.30;46.00;;;;;;;-3.40;65.56;98296.79;105896;1280;25374;-80
2022/03/07 02:15:55;;;;;;;54.10;49.40;;;;;;;-3.40;65.34;98291.84;105952;1280;22700;-81
2022/03/07 02:18:29;;;;;;;54.80;49.90;;;;;;;-3.38;65.40;98295.30;105917;1279;25313;-86
2022/03/07 02:21:10;;;;;;;53.30;48.80;;;;;;;-3.39;65.03;98299.62;106012;1280;22701;-80
2022/03/07 02:23:46;;;;;;;55.80;51.10;;;;;;;-3.42;64.93;98294.22;105911;1280;24213;-79
2022/03/07 02:26:16;;;;;;;54.30;49.60;;;;;;;-3.45;64.95;98290.02;105663;1280;22651;-79
2022/03/07 02:28:46;;;;;;;50.20;45.90;;;;;;;-3.45;64.83;98290.40;105805;1280;22696;-78
2022/03/07 02:31:18;;;;;;;52.50;48.00;;;;;;;-3.48;64.84;98292.34;105691;1279;22553;-78
2022/03/07 02:33:47;;;;;;;50.10;45.80;;;;;;;-3.50;64.69;98293.84;105561;1280;24099;-79
2022/03/07 02:36:17;;;;;;;50.20;45.80;;;;;;;-3.51;64.52;98296.63;105843;1279;25338;-79
2022/03/07 02:38:45;;;;;;;51.10;46.90;;;;;;;-3.52;64.42;98292.37;105457;1280;22551;-78
2022/03/07 02:41:14;;;;;;;51.90;47.60;;;;;;;-3.53;64.30;98293.98;105675;1280;23229;-79
2022/03/07 02:43:44;;;;;;;54.00;49.50;;;;;;;-3.55;64.27;98288.39;105864;1280;22599;-79
2022/03/07 02:46:13;;;;;;;52.20;47.90;;;;;;;-3.58;64.26;98288.77;105931;1279;22936;-79
2022/03/07 02:48:43;;;;;;;50.90;46.50;;;;;;;-3.59;64.26;98281.54;105815;1280;22557;-79
2022/03/07 02:51:11;;;;;;;50.60;46.50;;;;;;;-3.61;64.33;98279.47;105679;1281;24490;-80
2022/03/07 02:53:39;;;;;;;50.60;46.30;;;;;;;-3.61;64.31;98277.68;105658;1281;22623;-80
2022/03/07 02:56:07;;;;;;;49.60;45.10;;;;;;;-3.60;64.28;98277.64;105630;1281;24397;-79
2022/03/07 02:58:35;;;;;;;52.90;48.50;;;;;;;-3.56;64.34;98277.59;106051;1280;22872;-79
2022/03/07 03:01:03;;;;;;;49.40;45.30;;;;;;;-3.51;64.27;98275.95;105826;1280;22791;-80
2022/03/07 03:03:32;;;;;;;49.00;44.60;;;;;;;-3.49;64.35;98275.73;105601;1281;25390;-79
2022/03/07 03:06:00;;;;;;;50.40;45.80;;;;;;;-3.48;64.49;98276.73;105927;1280;25310;-79
2022/03/07 03:08:28;;;;;;;51.30;46.70;;;;;;;-3.48;64.33;98274.79;105627;1280;22867;-79
2022/03/07 03:10:57;;;;;;;55.20;50.30;;;;;;;-3.49;64.29;98275.29;105828;1280;25311;-80
2022/03/07 03:13:25;;;;;;;55.00;50.10;;;;;;;-3.51;64.27;98279.08;105746;1279;22540;-79
2022/03/07 03:15:54;;;;;;;54.70;49.60;;;;;;;-3.55;64.18;98278.55;105774;1280;22858;-80
2022/03/07 03:18:23;;;;;;;53.50;48.90;;;;;;;-3.58;64.31;98277.77;105847;1280;22821;-80
2022/03/07 03:20:54;;;;;;;53.50;48.80;;;;;;;-3.61;64.26;98281.45;105943;1280;24544;-79
2022/03/07 03:23:22;;;;;;;52.80;48.20;;;;;;;-3.64;64.18;98276.09;105911;1280;24377;-79
2022/03/07 03:25:51;;;;;;;55.30;50.50;;;;;;;-3.71;64.07;98275.61;105583;1280;22698;-79
2022/03/07 03:28:19;;;;;;;54.10;49.80;;;;;;;-3.77;64.12;98274.52;105890;1280;24325;-79
2022/03/07 03:30:46;;;;;;;56.30;51.70;;;;;;;-3.81;64.26;98270.64;105914;1280;24285;-79
2022/03/07 03:33:14;;;;;;;59.10;53.90;;;;;;;-3.84;64.23;98268.37;105934;1280;24222;-79
2022/03/07 03:35:42;;;;;;;54.40;49.90;;;;;;;-3.86;64.22;98265.55;105953;1280;22557;-78
2022/03/07 03:38:10;;;;;;;50.90;46.50;;;;;;;-3.87;64.19;98262.17;105928;1280;24391;-79
2022/03/07 03:40:38;;;;;;;41.60;38.20;;;;;;;-3.85;63.91;98253.66;105345;1282;22714;-80
2022/03/07 03:43:06;;;;;;;42.70;39.20;;;;;;;-3.83;63.53;98246.02;105995;1280;22748;-80
2022/03/07 03:45:34;;;;;;;40.70;37.30;;;;;;;-3.80;63.05;98249.30;105957;1280;22627;-81
2022/03/07 03:48:03;;;;;;;45.20;41.50;;;;;;;-3.77;62.62;98249.30;105719;1280;24437;-80
2022/03/07 03:50:31;;;;;;;46.20;42.50;;;;;;;-3.76;61.55;98251.95;105822;1280;22564;-83
2022/03/07 03:53:02;;;;;;;46.20;42.00;;;;;;;-3.75;61.25;98251.79;106003;1280;22769;-81
2022/03/07 03:55:30;;;;;;;49.20;45.10;;;;;;;-3.73;61.78;98249.85;105911;1280;23933;-78
2022/03/07 03:57:58;;;;;;;52.00;47.60;;;;;;;-3.73;61.87;98247.79;105883;1280;22691;-78
2022/03/07 04:00:28;;;;;;;48.40;44.10;;;;;;;-3.71;62.33;98248.27;105685;1280;22709;-79
2022/03/07 04:02:56;;;;;;;52.50;47.70;;;;;;;-3.69;62.46;98248.20;105960;1280;24802;-79
2022/03/07 04:05:24;;;;;;;52.90;48.30;;;;;;;-3.68;62.56;98252.46;105985;1280;22531;-80
2022/03/07 04:07:52;;;;;;;50.30;46.00;;;;;;;-3.68;62.60;98249.66;105873;1279;23209;-79
2022/03/07 04:10:20;;;;;;;50.70;46.30;;;;;;;-3.68;62.62;98257.93;105912;1280;25245;-79
2022/03/07 04:12:48;;;;;;;50.40;46.20;;;;;;;-3.71;62.59;98257.39;105916;1280;22654;-80
2022/03/07 04:15:16;;;;;;;52.80;48.40;;;;;;;-3.75;62.57;98257.25;105923;1280;22581;-78
2022/03/07 04:17:44;;;;;;;56.20;51.50;;;;;;;-3.77;62.67;98259.11;105936;1280;22706;-78
2022/03/07 04:20:13;;;;;;;58.40;53.50;;;;;;;-3.80;62.83;98255.75;105942;1280;22550;-78
2022/03/07 04:22:41;;;;;;;70.00;64.10;;;;;;;-3.82;62.76;98250.02;105939;1280;23340;-79
2022/03/07 04:25:09;;;;;;;73.80;67.50;;;;;;;-3.83;62.67;98252.49;105943;1280;24394;-79
2022/03/07 04:27:37;;;;;;;60.90;55.90;;;;;;;-3.84;62.78;98251.93;105630;1280;25368;-79
2022/03/07 04:30:07;;;;;;;61.60;56.40;;;;;;;-3.85;62.74;98243.59;105631;1280;22936;-79
2022/03/07 04:32:37;;;;;;;52.90;48.50;;;;;;;-3.84;62.73;98246.00;105712;1280;22584;-80
2022/03/07 04:35:08;;;;;;;55.30;50.50;;;;;;;-3.84;62.77;98242.81;105941;1280;22705;-76
2022/03/07 04:37:40;;;;;;;53.50;48.90;;;;;;;-3.84;62.68;98237.83;105956;1280;22562;-79
2022/03/07 04:40:14;;;;;;;54.50;49.50;;;;;;;-3.83;62.71;98241.06;105948;1280;25390;-78
2022/03/07 04:42:43;;;;;;;54.00;49.40;;;;;;;-3.82;62.71;98245.00;105665;1280;22731;-79
2022/03/07 04:45:13;;;;;;;55.20;50.50;;;;;;;-3.81;62.71;98249.83;105646;1280;22573;-77
2022/03/07 04:47:41;;;;;;;56.80;51.90;;;;;;;-3.81;62.71;98253.35;105737;1280;22697;-78
2022/03/07 04:50:12;;;;;;;55.20;50.20;;;;;;;-3.81;62.68;98256.10;105930;1280;25473;-80
2022/03/07 04:52:42;;;;;;;57.30;52.30;;;;;;;-3.82;62.58;98252.21;105999;1279;23051;-79
2022/03/07 04:55:12;;;;;;;54.40;49.60;;;;;;;-3.81;62.51;98250.27;105937;1280;22570;-80
2022/03/07 04:57:40;;;;;;;57.70;52.60;;;;;;;-3.81;62.64;98249.79;105665;1280;22588;-79
2022/03/07 05:00:10;;;;;;;54.20;49.30;;;;;;;-3.80;62.75;98247.77;105868;1280;22698;-79
2022/03/07 05:02:38;;;;;;;56.10;50.90;;;;;;;-3.80;62.63;98252.59;105959;1280;25324;-80
2022/03/07 05:05:06;;;;;;;54.50;49.70;;;;;;;-3.81;62.63;98253.84;106182;1280;22765;-79
2022/03/07 05:07:34;;;;;;;52.30;48.00;;;;;;;-3.81;62.63;98261.73;105978;1280;22741;-80
2022/03/07 05:10:03;;;;;;;53.00;48.60;;;;;;;-3.80;62.58;98261.27;106040;1280;22551;-79
2022/03/07 05:12:31;;;;;;;50.60;46.10;;;;;;;-3.79;62.71;98265.52;105841;1280;23218;-80
2022/03/07 05:14:59;;;;;;;49.30;45.20;;;;;;;-3.79;62.50;98266.23;105765;1280;25333;-80
2022/03/07 05:17:27;;;;;;;50.90;46.70;;;;;;;-3.80;62.47;98268.42;105936;1280;26756;-79
2022/03/07 05:19:55;;;;;;;50.10;45.90;;;;;;;-3.82;62.53;98264.48;105956;1280;22533;-79
2022/03/07 05:22:24;;;;;;;49.80;45.50;;;;;;;-3.83;62.63;98264.23;105957;1280;24628;-79
2022/03/07 05:24:52;;;;;;;49.20;45.00;;;;;;;-3.83;62.57;98264.44;105930;1280;25559;-79
2022/03/07 05:27:20;;;;;;;48.60;44.60;;;;;;;-3.83;62.63;98263.23;105719;1281;22552;-79
2022/03/07 05:29:48;;;;;;;53.10;48.50;;;;;;;-3.81;62.69;98266.84;105659;1281;22881;-81
2022/03/07 05:32:16;;;;;;;50.20;45.80;;;;;;;-3.80;62.59;98263.85;105841;1279;22558;-80
2022/03/07 05:34:44;;;;;;;53.00;48.20;;;;;;;-3.79;62.58;98266.57;105762;1279;24254;-79
2022/03/07 05:37:12;;;;;;;51.90;47.70;;;;;;;-3.80;62.80;98270.48;105690;1279;24455;-80
2022/03/07 05:39:40;;;;;;;52.90;48.60;;;;;;;-3.78;62.82;98274.02;105629;1281;22558;-79
2022/03/07 05:42:08;;;;;;;51.20;46.90;;;;;;;-3.77;62.74;98277.73;105660;1280;22658;-79
2022/03/07 05:44:36;;;;;;;49.50;45.10;;;;;;;-3.76;62.68;98279.54;105772;1280;22649;-77
2022/03/07 05:47:04;;;;;;;53.70;49.00;;;;;;;-3.76;62.87;98286.34;105844;1280;22629;-77
2022/03/07 05:49:32;;;;;;;55.20;50.40;;;;;;;-3.78;62.74;98282.09;105685;1280;24922;-81
2022/03/07 05:52:01;;;;;;;56.90;52.10;;;;;;;-3.80;62.92;98280.21;105932;1280;22562;-80
2022/03/07 05:54:31;;;;;;;56.00;51.30;;;;;;;-3.79;63.09;98275.73;105851;1280;22694;-79
2022/03/07 05:56:59;;;;;;;53.20;48.70;;;;;;;-3.78;63.16;98278.55;105915;1280;25280;-81
2022/03/07 05:59:27;;;;;;;48.30;43.70;;;;;;;-3.75;63.06;98276.02;105909;1280;25498;-79
2022/03/07 06:02:00;;;;;;;49.60;45.40;;;;;;;-3.70;63.09;98276.60;105886;1280;25324;-80
2022/03/07 06:04:28;;;;;;;46.90;42.90;;;;;;;-3.62;63.13;98281.61;105608;1280;22609;-79
2022/03/07 06:06:56;;;;;;;48.90;44.50;;;;;;;-3.57;63.28;98281.49;105917;1278;24227;-79
2022/03/07 06:09:24;;;;;;;48.60;44.20;;;;;;;-3.56;63.38;98285.88;105940;1280;22628;-80
2022/03/07 06:11:52;;;;;;;49.40;45.20;;;;;;;-3.53;63.44;98285.65;105949;1280;25374;-80
2022/03/07 06:14:20;;;;;;;50.40;46.00;;;;;;;-3.50;63.49;98290.15;105721;1280;22735;-79
2022/03/07 06:16:48;;;;;;;50.10;46.00;;;;;;;-3.48;63.59;98285.86;105854;1280;25496;-80
2022/03/07 06:19:16;;;;;;;48.70;44.40;;;;;;;-3.49;63.74;98285.13;105836;1280;22559;-79
2022/03/07 06:21:48;;;;;;;50.60;46.20;;;;;;;-3.50;64.01;98283.38;105900;1280;24262;-78
2022/03/07 06:24:16;;;;;;;50.30;46.30;;;;;;;-3.49;63.84;98279.50;105968;1280;22569;-80
2022/03/07 06:26:47;;;;;;;47.70;43.80;;;;;;;-3.45;63.92;98280.58;105895;1280;25484;-79
2022/03/07 06:29:19;;;;;;;;;;;;;;;-3.43;64.04;98288.39;105759;1280;24453;-80
2022/03/07 06:31:47;;;;;;;47.80;44.00;;;;;;;-3.46;63.89;98291.46;105727;1280;25494;-79
2022/03/07 06:34:16;;;;;;;47.40;43.40;;;;;;;-3.46;64.05;98288.63;105891;1279;22789;-80
2022/03/07 06:36:47;;;;;;;41.60;37.90;;;;;;;-3.46;64.71;98290.61;105914;1280;25385;-80
2022/03/07 06:39:15;;;;;;;41.80;38.00;;;;;;;-3.49;64.85;98288.66;105931;1280;25348;-79
2022/03/07 06:41:45;;;;;;;42.50;38.80;;;;;;;-3.49;65.13;98288.05;105925;1280;25266;-79
2022/03/07 06:44:13;;;;;;;47.40;43.30;;;;;;;-3.48;65.22;98290.68;105893;1280;24098;-79
2022/03/07 06:46:41;;;;;;;46.40;42.60;;;;;;;-3.49;65.24;98290.81;105903;1280;25430;-79
2022/03/07 06:49:11;;;;;;;50.90;46.50;;;;;;;-3.49;65.73;98288.09;105840;1280;22665;-80
2022/03/07 06:51:39;;;;;;;43.80;40.10;;;;;;;-3.49;65.68;98292.38;105752;1279;22544;-79
2022/03/07 06:54:07;;;;;;;42.70;39.10;;;;;;;-3.48;65.85;98294.81;105800;1280;22570;-78
2022/03/07 06:56:36;;;;;;;42.80;39.20;;;;;;;-3.44;66.51;98299.21;105930;1280;26403;-79
2022/03/07 06:59:04;;;;;;;45.70;41.70;;;;;;;-3.39;66.25;98299.34;105824;1280;25619;-79
2022/03/07 07:01:32;;;;;;;46.40;42.50;;;;;;;-3.35;66.13;98300.77;105736;1280;22550;-79
2022/03/07 07:04:00;;;;;;;48.40;44.30;;;;;;;-3.35;66.50;98296.63;105594;1281;22548;-79
2022/03/07 07:06:28;;;;;;;50.50;46.50;;;;;;;-3.34;66.82;98300.65;105980;1280;25528;-80
2022/03/07 07:08:56;;;;;;;50.50;46.20;;;;;;;-3.35;66.71;98297.36;105611;1281;23423;-80
2022/03/07 07:11:24;;;;;;;45.60;41.70;;;;;;;-3.35;66.71;98300.34;105916;1280;24432;-79
2022/03/07 07:13:52;;;;;;;45.90;41.90;;;;;;;-3.28;66.72;98298.27;105872;1279;26714;-80
2022/03/07 07:16:20;;;;;;;46.80;42.40;;;;;;;-3.22;66.76;98300.56;105808;1280;25611;-80
2022/03/07 07:18:48;;;;;;;48.50;44.30;;;;;;;-3.16;67.07;98291.27;105727;1281;22772;-80
2022/03/07 07:21:15;;;;;;;48.00;43.70;;;;;;;-3.12;67.06;98295.14;105988;1280;23305;-79
2022/03/07 07:23:43;;;;;;;52.80;48.30;;;;;;;-3.10;67.59;98298.98;105990;1280;22535;-80
2022/03/07 07:26:12;;;;;;;56.10;51.30;;;;;;;-3.10;67.14;98294.36;105862;1280;24373;-80
2022/03/07 07:28:40;;;;;;;51.20;46.70;;;;;;;-3.06;67.26;98297.33;105687;1280;25472;-79
2022/03/07 07:31:07;;;;;;;49.90;45.80;;;;;;;-3.05;67.55;98303.62;105943;1280;22797;-79
2022/03/07 07:33:35;;;;;;;43.20;39.00;;;;;;;-3.06;67.91;98304.17;106036;1280;22741;-79
2022/03/07 07:36:03;;;;;;;44.90;40.80;;;;;;;-3.03;67.95;98303.42;105968;1280;25416;-79
2022/03/07 07:38:31;;;;;;;48.00;43.70;;;;;;;-3.01;68.32;98299.76;105867;1280;25392;-79
2022/03/07 07:40:59;;;;;;;47.70;43.40;;;;;;;-3.01;68.54;98305.28;105675;1280;25405;-79
2022/03/07 07:43:27;;;;;;;49.20;45.30;;;;;;;-3.03;68.34;98305.44;105849;1280;24386;-78
2022/03/07 07:45:55;;;;;;;50.20;45.80;;;;;;;-3.04;68.41;98302.77;106069;1280;25429;-78
2022/03/07 07:48:23;;;;;;;47.80;43.30;;;;;;;-3.04;68.48;98301.02;105715;1280;22623;-78
2022/03/07 07:50:51;;;;;;;41.80;38.10;;;;;;;-3.01;68.69;98307.02;106043;1278;22708;-77
2022/03/07 07:53:19;;;;;;;39.70;35.10;;;;;;;-3.02;68.80;98301.91;105696;1278;25361;-77
2022/03/07 07:55:47;;;;;;;41.90;37.70;;;;;;;-2.96;68.50;98300.92;105818;1278;24336;-76
2022/03/07 07:58:15;;;;;;;41.70;37.70;;;;;;;-2.90;68.80;98293.73;105660;1278;22693;-77
2022/03/07 08:00:42;;;;;;;44.10;39.80;;;;;;;-2.89;68.81;98291.65;105541;1279;24451;-75
2022/03/07 08:03:11;;;;;;;44.20;40.10;;;;;;;-2.86;68.56;98287.41;105711;1278;22735;-78
2022/03/07 08:05:40;;;;;;;44.50;40.50;;;;;;;-2.79;69.03;98283.39;106082;1278;24370;-77
2022/03/07 08:08:08;;;;;;;41.20;37.10;;;;;;;-2.72;68.71;98285.51;105682;1278;24511;-78
2022/03/07 08:10:36;;;;;;;37.20;34.00;;;;;;;-2.61;68.81;98285.04;105669;1279;22754;-78
2022/03/07 08:13:04;;;;;;;34.30;30.90;;;;;;;-2.51;68.67;98287.14;106340;1278;24325;-77
2022/03/07 08:15:31;;;;;;;37.90;34.10;;;;;;;-2.45;68.69;98289.35;105970;1279;22794;-76
2022/03/07 08:18:00;;;;;;;40.50;36.60;;;;;;;-2.42;68.65;98283.48;105553;1281;25653;-78
2022/03/07 08:20:28;;;;;;;40.40;36.70;;;;;;;-2.38;68.67;98285.29;106130;1280;22557;-77
2022/03/07 08:22:56;;;;;;;42.50;38.60;;;;;;;-2.36;68.62;98287.77;105648;1281;23936;-77
2022/03/07 08:25:26;;;;;;;42.40;37.90;;;;;;;-2.31;68.65;98286.41;105595;1279;24113;-78
2022/03/07 08:27:54;;;;;;;37.40;33.70;;;;;;;-2.25;68.47;98285.84;105945;1280;24451;-78
2022/03/07 08:30:24;;;;;;;35.90;32.20;;;;;;;-2.16;68.41;98285.16;106072;1280;26151;-78
2022/03/07 08:32:53;;;;;;;33.90;30.60;;;;;;;-1.99;68.48;98284.95;105905;1281;22687;-78
2022/03/07 08:35:22;;;;;;;35.40;32.00;;;;;;;-1.85;68.26;98288.08;106106;1279;25319;-78
2022/03/07 08:37:53;;;;;;;42.10;35.90;;;;;;;-1.77;68.06;98289.66;106013;1281;22731;-78
2022/03/07 08:40:22;;;;;;;28.60;25.80;;;;;;;-1.70;67.88;98290.86;105991;1280;23396;-78
2022/03/07 08:42:51;;;;;;;31.50;28.40;;;;;;;-1.68;67.66;98284.02;106110;1280;26789;-79
2022/03/07 08:45:22;;;;;;;29.70;26.70;;;;;;;-1.60;67.68;98291.27;106103;1280;25004;-80
2022/03/07 08:48:06;;;;;;;26.80;23.90;;;;;;;-1.56;66.87;98286.89;105811;1279;22570;-78
2022/03/07 08:50:34;;;;;;;28.60;25.90;;;;;;;-1.52;66.94;98284.34;106098;1280;22871;-79
2022/03/07 08:53:02;;;;;;;20.30;18.30;;;;;;;-1.51;65.98;98284.70;105897;1280;24586;-77
2022/03/07 08:55:29;;;;;;;30.60;23.10;;;;;;;-1.57;64.83;98277.46;105979;1280;22576;-79
2022/03/07 08:57:58;;;;;;;27.40;24.50;;;;;;;-1.60;65.51;98281.50;106024;1280;24306;-78
2022/03/07 09:00:25;;;;;;;27.30;24.00;;;;;;;-1.60;65.39;98281.05;106045;1281;22549;-78
2022/03/07 09:02:53;;;;;;;28.80;25.90;;;;;;;-1.60;65.54;98278.48;105983;1280;24402;-78
2022/03/07 09:05:21;;;;;;;30.50;26.00;;;;;;;-1.57;66.02;98278.48;105913;1280;23536;-77
2022/03/07 09:07:49;;;;;;;29.50;26.50;;;;;;;-1.47;66.05;98285.21;106101;1280;22553;-78
2022/03/07 09:10:17;;;;;;;27.20;24.50;;;;;;;-1.43;65.37;98290.44;106042;1281;24390;-78
2022/03/07 09:12:45;;;;;;;29.90;27.00;;;;;;;-1.47;65.26;98286.45;106118;1281;23308;-78
2022/03/07 09:15:14;;;;;;;32.60;29.20;;;;;;;-1.48;65.24;98286.40;106058;1281;22533;-78
2022/03/07 09:17:42;;;;;;;29.40;26.50;;;;;;;-1.48;64.93;98290.95;106083;1281;25407;-78
2022/03/07 09:20:13;;;;;;;30.00;27.00;;;;;;;-1.50;64.83;98288.41;106058;1281;22864;-78
2022/03/07 09:22:41;;;;;;;31.40;28.20;;;;;;;-1.51;64.56;98286.18;106037;1280;22580;-79
2022/03/07 09:25:10;;;;;;;31.50;28.40;;;;;;;-1.48;64.94;98285.34;106013;1281;22874;-77
2022/03/07 09:27:38;;;;;;;30.20;27.30;;;;;;;-1.41;64.75;98281.73;106064;1280;23942;-79
2022/03/07 09:30:07;;;;;;;29.90;27.20;;;;;;;-1.37;64.28;98285.65;106071;1281;24524;-80
2022/03/07 09:32:35;;;;;;;29.80;26.90;;;;;;;-1.38;64.78;98278.90;106134;1280;24397;-77
2022/03/07 09:35:03;;;;;;;34.00;30.30;;;;;;;-1.27;65.18;98278.44;106204;1281;22549;-78
2022/03/07 09:37:32;;;;;;;35.60;32.30;;;;;;;-1.14;64.91;98277.81;105982;1281;25454;-77
2022/03/07 09:40:00;;;;;;;32.30;29.30;;;;;;;-1.08;64.34;98280.34;106041;1281;25498;-77
2022/03/07 09:42:28;;;;;;;38.00;31.80;;;;;;;-1.14;63.94;98277.02;105779;1281;24248;-78
2022/03/07 09:44:57;;;;;;;38.30;34.80;;;;;;;-1.17;64.06;98277.77;106392;1280;25547;-79
2022/03/07 09:47:26;;;;;;;37.60;33.70;;;;;;;-1.18;63.93;98280.14;106104;1280;22563;-79
2022/03/07 09:49:55;;;;;;;38.20;34.50;;;;;;;-1.16;64.06;98276.17;106094;1281;22573;-79
2022/03/07 09:52:23;;;;;;;38.80;34.70;;;;;;;-1.04;64.48;98280.16;106128;1281;25332;-78
2022/03/07 09:54:51;;;;;;;37.60;33.60;;;;;;;-0.91;63.86;98280.27;106171;1281;24482;-78
2022/03/07 09:57:18;;;;;;;33.30;30.00;;;;;;;-0.85;63.79;98285.14;106139;1281;24056;-78
2022/03/07 09:59:46;;;;;;;36.70;33.00;;;;;;;-0.80;63.86;98281.23;106066;1280;22557;-78
2022/03/07 10:02:18;;;;;;;33.70;30.60;;;;;;;-0.79;63.62;98281.92;105978;1280;22556;-78
2022/03/07 10:04:46;;;;;;;34.00;30.60;;;;;;;-0.79;63.79;98284.58;106288;1280;26597;-79
2022/03/07 10:07:15;;;;;;;30.80;27.90;;;;;;;-0.76;63.65;98288.01;106127;1281;25309;-79
2022/03/07 10:09:44;;;;;;;30.30;27.20;;;;;;;-0.72;63.65;98285.04;106150;1280;25429;-80
2022/03/07 10:12:12;;;;;;;28.60;25.80;;;;;;;-0.67;63.71;98285.33;106162;1281;24227;-79
2022/03/07 10:14:46;;;;;;;29.10;24.80;;;;;;;-0.57;63.73;98286.78;106164;1281;23692;-79
2022/03/07 10:17:39;;;;;;;26.00;23.50;;;;;;;-0.52;62.66;98286.79;106142;1280;25475;-79
2022/03/07 10:20:07;;;;;;;31.50;25.90;;;;;;;-0.48;62.43;98279.83;105609;1284;22544;-78
2022/03/07 10:22:45;;;;;;;27.70;25.00;;;;;;;-0.40;62.10;98283.65;105602;1283;25355;-78
2022/03/07 10:25:14;;;;;;;27.30;24.80;;;;;;;-0.39;61.70;98285.07;105709;1284;22676;-77
2022/03/07 10:27:46;;;;;;;27.30;24.70;;;;;;;-0.40;61.91;98281.50;105661;1283;25497;-78
2022/03/07 10:30:17;;;;;;;28.80;26.10;;;;;;;-0.32;62.15;98281.30;105679;1284;22815;-79
2022/03/07 10:32:55;;;;;;;23.90;21.50;;;;;;;-0.23;60.93;98283.33;105686;1284;26662;-78
2022/03/07 10:35:28;;;;;;;24.00;21.60;;;;;;;-0.18;61.42;98280.50;105726;1284;22633;-79
2022/03/07 10:38:01;;;;;;;23.90;21.50;;;;;;;-0.14;60.87;98278.50;105306;1284;22577;-77
2022/03/07 10:40:31;;;;;;;24.70;22.20;;;;;;;-0.15;60.67;98278.89;105803;1284;23662;-77
2022/03/07 10:43:00;;;;;;;22.70;20.70;;;;;;;-0.17;61.30;98274.55;105805;1283;22889;-78
2022/03/07 10:45:29;;;;;;;36.80;18.70;;;;;;;-0.13;60.83;98275.03;105808;1284;24257;-77
2022/03/07 10:48:00;;;;;;;18.90;17.10;;;;;;;-0.19;60.98;98255.41;105709;1283;22553;-78
2022/03/07 10:50:29;;;;;;;20.70;18.60;;;;;;;-0.01;60.62;98275.71;105530;1283;23489;-78
2022/03/07 10:53:03;;;;;;;20.10;17.00;;;;;;;0.03;59.90;98273.27;106003;1280;24778;-81
2022/03/07 10:55:32;;;;;;;22.00;19.40;;;;;;;0.06;60.28;98268.27;105967;1281;22718;-79
2022/03/07 10:58:08;;;;;;;20.50;18.40;;;;;;;0.09;59.29;98269.81;106057;1281;24376;-78
2022/03/07 11:00:52;;;;;;;21.70;18.10;;;;;;;0.10;58.40;98268.79;105677;1281;24242;-78
2022/03/07 11:03:31;;;;;;;20.30;18.40;;;;;;;0.17;58.76;98263.12;106142;1280;25354;-80
2022/03/07 11:06:01;;;;;;;18.60;15.80;;;;;;;0.27;57.60;98264.18;106185;1281;22665;-79
2022/03/07 11:08:30;;;;;;;18.80;16.90;;;;;;;0.42;58.92;98260.72;106112;1278;24240;-80
2022/03/07 11:11:00;;;;;;;17.50;15.80;;;;;;;0.52;58.23;98262.52;106171;1280;22636;-80
2022/03/07 11:13:31;;;;;;;21.10;18.90;;;;;;;0.69;59.56;98258.19;106295;1281;22547;-79
2022/03/07 11:16:01;;;;;;;20.70;18.60;;;;;;;0.91;59.23;98255.57;106401;1280;24108;-79
2022/03/07 11:18:31;;;;;;;21.00;18.80;;;;;;;1.08;59.22;98252.60;106151;1280;22593;-80